Time,TemperatureF,DewpointF,PressureIn,WindDirection,WindDirectionDegrees,WindSpeedMPH,WindSpeedGustMPH,Humidity,HourlyPrecipIn,Conditions,Clouds,dailyrainin,SoftwareType,DateUTC
2013-05-13 00:00:00,70.3,58.4,27.73,WNW,303,8.0,17.0,66,0.00,CLR,CLR,0.00,WeatherDisplay:10.37,2013-05-12 21:00:00,
2013-05-13 00:10:00,70.3,58.4,27.73,WNW,293,6.0,15.0,66,0.00,CLR,CLR,0.00,WeatherDisplay:10.37,2013-05-12 21:10:00,
2013-05-13 00:20:00,70.2,58.7,27.73,NNW,347,2.0,12.0,67,0.00,CLR,CLR,0.00,WeatherDisplay:10.37,2013-05-12 21:20:00,
2013-05-13 00:30:00,70.2,57.8,27.73,NNW,347,6.0,12.0,65,0.00,CLR,CLR,0.00,WeatherDisplay:10.37,2013-05-12 21:30:00,
2013-05-13 00:40:00,70.2,57.4,27.73,North,352,5.0,13.0,64,0.00,CLR,CLR,0.00,WeatherDisplay:10.37,2013-05-12 21:40:00,
2013-05-13 00:50:00,70.2,58.7,27.73,NNW,332,5.0,11.0,67,0.00,CLR,CLR,0.00,WeatherDisplay:10.37,2013-05-12 21:50:00,
2013-05-13 01:00:00,70.0,58.5,27.73,NNW,343,2.0,9.0,67,0.00,CLR,CLR,0.00,WeatherDisplay:10.37,2013-05-12 22:00:00,
2013-05-13 01:10:00,69.8,57.5,27.73,NW,317,2.0,6.0,65,0.00,CLR,CLR,0.00,WeatherDisplay:10.37,2013-05-12 22:10:00,
2013-05-13 01:20:00,69.6,57.8,27.73,North,358,5.0,10.0,66,0.00,CLR,CLR,0.00,WeatherDisplay:10.37,2013-05-12 22:20:00,
2013-05-13 01:30:00,69.4,58.0,27.73,NNE,17,6.0,11.0,67,0.00,CLR,CLR,0.00,WeatherDisplay:10.37,2013-05-12 22:30:00,
2013-05-13 01:40:00,69.3,57.4,27.74,North,358,8.0,17.0,66,0.00,CLR,CLR,0.00,WeatherDisplay:10.37,2013-05-12 22:40:00,
2013-05-13 01:50:00,69.3,57.4,27.73,WNW,294,6.0,17.0,66,0.00,CLR,CLR,0.00,WeatherDisplay:10.37,2013-05-12 22:50:00,
2013-05-13 02:00:00,68.9,57.5,27.73,NNW,347,6.0,17.0,67,0.00,CLR,CLR,0.00,WeatherDisplay:10.37,2013-05-12 23:00:00,
2013-05-13 02:10:00,68.6,58.0,27.73,NNW,330,8.0,17.0,69,0.00,CLR,CLR,0.00,WeatherDisplay:10.37,2013-05-12 23:10:00,
2013-05-13 02:20:00,68.5,58.4,27.73,NW,308,7.0,18.0,70,0.00,CLR,CLR,0.00,WeatherDisplay:10.37,2013-05-12 23:20:00,
2013-05-13 02:30:00,68.4,58.2,27.73,NNW,342,8.0,18.0,70,0.00,CLR,CLR,0.00,WeatherDisplay:10.37,2013-05-12 23:30:00,
2013-05-13 02:40:00,68.0,57.8,27.73,West,266,10.0,23.0,70,0.00,CLR,CLR,0.00,WeatherDisplay:10.37,2013-05-12 23:40:00,
2013-05-13 02:50:00,68.2,58.0,27.73,WNW,295,8.0,20.0,70,0.00,CLR,CLR,0.00,WeatherDisplay:10.37,2013-05-12 23:50:00,
2013-05-13 03:00:00,68.0,57.8,27.73,NW,320,9.0,17.0,70,0.00,CLR,CLR,0.00,WeatherDisplay:10.37,2013-05-13 00:00:00,
2013-05-13 03:10:00,68.0,58.6,27.72,NW,320,5.0,18.0,72,0.00,CLR,CLR,0.00,WeatherDisplay:10.37,2013-05-13 00:10:00,
2013-05-13 03:20:00,67.8,58.8,27.72,NW,318,6.0,15.0,73,0.00,CLR,CLR,0.00,WeatherDisplay:10.37,2013-05-13 00:20:00,
2013-05-13 03:30:00,67.6,59.4,27.72,North,0,3.0,13.0,75,0.00,CLR,CLR,0.00,WeatherDisplay:10.37,2013-05-13 00:30:00,
2013-05-13 03:40:00,67.5,58.9,27.72,NW,312,6.0,13.0,74,0.00,CLR,CLR,0.00,WeatherDisplay:10.37,2013-05-13 00:40:00,
2013-05-13 03:50:00,67.5,58.9,27.72,NW,318,5.0,12.0,74,0.00,CLR,CLR,0.00,WeatherDisplay:10.37,2013-05-13 00:50:00,
2013-05-13 04:00:00,67.5,58.9,27.72,North,0,2.0,11.0,74,0.00,CLR,CLR,0.00,WeatherDisplay:10.37,2013-05-13 01:00:00,
2013-05-13 04:10:00,66.9,58.0,27.71,NW,317,3.0,8.0,73,0.00,CLR,CLR,0.00,WeatherDisplay:10.37,2013-05-13 01:10:00,
2013-05-13 04:20:00,66.9,57.6,27.71,West,278,1.0,8.0,72,0.00,CLR,CLR,0.00,WeatherDisplay:10.37,2013-05-13 01:20:00,
2013-05-13 04:30:00,66.9,58.0,27.71,NW,306,3.0,9.0,73,0.00,CLR,CLR,0.00,WeatherDisplay:10.37,2013-05-13 01:30:00,
2013-05-13 04:40:00,66.6,57.6,27.71,NNW,341,0.0,8.0,73,0.00,CLR,CLR,0.00,WeatherDisplay:10.37,2013-05-13 01:40:00,
2013-05-13 04:50:00,65.5,56.6,27.71,NE,41,0.0,6.0,73,0.00,CLR,CLR,0.00,WeatherDisplay:10.37,2013-05-13 01:50:00,
2013-05-13 05:00:00,65.1,56.2,27.71,North,351,0.0,3.0,73,0.00,CLR,CLR,0.00,WeatherDisplay:10.37,2013-05-13 02:00:00,
2013-05-13 05:10:00,65.5,56.6,27.71,WNW,293,0.0,0.0,73,0.00,CLR,CLR,0.00,WeatherDisplay:10.37,2013-05-13 02:10:00,
2013-05-13 05:20:00,64.6,55.7,27.72,East,82,1.0,4.0,73,0.00,CLR,CLR,0.00,WeatherDisplay:10.37,2013-05-13 02:20:00,
2013-05-13 05:30:00,64.2,55.7,27.72,NE,39,1.0,4.0,74,0.00,CLR,CLR,0.00,WeatherDisplay:10.37,2013-05-13 02:30:00,
2013-05-13 05:40:00,63.9,55.4,27.72,North,3,0.0,2.0,74,0.00,CLR,CLR,0.00,WeatherDisplay:10.37,2013-05-13 02:40:00,
2013-05-13 05:50:00,64.4,55.9,27.72,NE,45,0.0,1.0,74,0.00,CLR,CLR,0.00,WeatherDisplay:10.37,2013-05-13 02:50:00,
2013-05-13 06:00:00,63.7,55.2,27.72,NE,45,0.0,3.0,74,0.00,CLR,CLR,0.00,WeatherDisplay:10.37,2013-05-13 03:00:00,
2013-05-13 06:10:00,63.3,54.9,27.73,NE,45,0.0,2.0,74,0.00,CLR,CLR,0.00,WeatherDisplay:10.37,2013-05-13 03:10:00,
2013-05-13 06:20:00,63.5,54.7,27.73,NE,45,0.0,2.0,73,0.00,CLR,CLR,0.00,WeatherDisplay:10.37,2013-05-13 03:20:00,
2013-05-13 06:30:00,63.7,54.9,27.73,NE,45,0.0,2.0,73,0.00,CLR,CLR,0.00,WeatherDisplay:10.37,2013-05-13 03:30:00,
2013-05-13 06:40:00,64.5,55.7,27.72,East,88,0.0,2.0,73,0.00,CLR,CLR,0.00,WeatherDisplay:10.37,2013-05-13 03:40:00,
2013-05-13 06:50:00,65.7,56.0,27.73,NW,320,2.0,6.0,71,0.00,CLR,CLR,0.00,WeatherDisplay:10.37,2013-05-13 03:50:00,
2013-05-13 07:00:00,66.3,56.3,27.73,WNW,303,1.0,6.0,70,0.00,CLR,CLR,0.00,WeatherDisplay:10.37,2013-05-13 04:00:00,
2013-05-13 07:10:00,66.7,56.6,27.73,North,357,3.0,6.0,70,0.00,CLR,CLR,0.00,WeatherDisplay:10.37,2013-05-13 04:10:00,
2013-05-13 07:20:00,66.6,57.3,27.73,North,359,2.0,7.0,72,0.00,CLR,CLR,0.00,WeatherDisplay:10.37,2013-05-13 04:20:00,
2013-05-13 07:30:00,66.7,57.8,27.74,NNE,22,2.0,9.0,73,0.00,CLR,CLR,0.00,WeatherDisplay:10.37,2013-05-13 04:30:00,
2013-05-13 07:40:00,67.5,58.5,27.74,NW,306,2.0,12.0,73,0.00,CLR,CLR,0.00,WeatherDisplay:10.37,2013-05-13 04:40:00,
2013-05-13 07:50:00,68.2,58.8,27.74,West,259,5.0,10.0,72,0.00,CLR,CLR,0.00,WeatherDisplay:10.37,2013-05-13 04:50:00,
2013-05-13 08:00:00,69.4,59.9,27.74,WNW,290,3.0,8.0,72,0.00,CLR,CLR,0.00,WeatherDisplay:10.37,2013-05-13 05:00:00,
2013-05-13 08:10:00,70.5,58.6,27.74,NW,310,3.0,6.0,66,0.00,CLR,CLR,0.00,WeatherDisplay:10.37,2013-05-13 05:10:00,
2013-05-13 08:20:00,71.5,59.2,27.74,NNW,328,1.0,8.0,65,0.00,CLR,CLR,0.00,WeatherDisplay:10.37,2013-05-13 05:20:00,
2013-05-13 08:30:00,73.1,57.9,27.75,North,0,3.0,6.0,59,0.00,CLR,CLR,0.00,WeatherDisplay:10.37,2013-05-13 05:30:00,
2013-05-13 08:40:00,71.2,57.5,27.75,North,0,2.0,6.0,62,0.00,CLR,CLR,0.00,WeatherDisplay:10.37,2013-05-13 05:40:00,
2013-05-13 08:50:00,71.9,58.6,27.75,North,352,5.0,8.0,63,0.00,CLR,CLR,0.00,WeatherDisplay:10.37,2013-05-13 05:50:00,
2013-05-13 09:00:00,73.7,59.0,27.75,NNW,335,2.0,11.0,60,0.00,CLR,CLR,0.00,WeatherDisplay:10.37,2013-05-13 06:00:00,
2013-05-13 09:10:00,73.4,57.7,27.75,West,272,3.0,11.0,58,0.00,CLR,CLR,0.00,WeatherDisplay:10.37,2013-05-13 06:10:00,
2013-05-13 09:20:00,71.8,58.1,27.75,NNW,339,3.0,9.0,62,0.00,CLR,CLR,0.00,WeatherDisplay:10.37,2013-05-13 06:20:00,
2013-05-13 09:30:00,70.8,58.4,27.75,NNW,346,5.0,9.0,65,0.00,CLR,CLR,0.00,WeatherDisplay:10.37,2013-05-13 06:30:00,
2013-05-13 09:40:00,70.3,59.7,27.75,NNW,334,3.0,11.0,69,0.00,CLR,CLR,0.00,WeatherDisplay:10.37,2013-05-13 06:40:00,
2013-05-13 09:50:00,70.3,59.6,27.75,North,4,2.0,8.0,69,0.00,CLR,CLR,0.00,WeatherDisplay:10.37,2013-05-13 06:50:00,
2013-05-13 10:00:00,69.8,59.6,27.75,WNW,294,7.0,13.0,70,0.00,CLR,CLR,0.00,WeatherDisplay:10.37,2013-05-13 07:00:00,
2013-05-13 10:10:00,70.3,59.7,27.75,NNW,337,5.0,13.0,69,0.00,CLR,CLR,0.00,WeatherDisplay:10.37,2013-05-13 07:10:00,
2013-05-13 10:20:00,71.4,59.5,27.75,NNW,348,5.0,13.0,66,0.00,CLR,CLR,0.00,WeatherDisplay:10.37,2013-05-13 07:20:00,
2013-05-13 10:30:00,71.2,59.3,27.75,NW,317,5.0,16.0,66,0.00,CLR,CLR,0.00,WeatherDisplay:10.37,2013-05-13 07:30:00,
2013-05-13 10:40:00,72.4,59.5,27.75,NW,315,2.0,13.0,64,0.00,CLR,CLR,0.00,WeatherDisplay:10.37,2013-05-13 07:40:00,
2013-05-13 10:50:00,72.1,59.7,27.75,NNW,342,5.0,11.0,65,0.00,CLR,CLR,0.00,WeatherDisplay:10.37,2013-05-13 07:50:00,
2013-05-13 11:00:00,71.6,60.1,27.75,West,264,6.0,14.0,67,0.00,CLR,CLR,0.00,WeatherDisplay:10.37,2013-05-13 08:00:00,
2013-05-13 11:10:00,72.9,60.0,27.75,NW,322,5.0,13.0,64,0.00,CLR,CLR,0.00,WeatherDisplay:10.37,2013-05-13 08:10:00,
2013-05-13 11:20:00,73.2,59.9,27.75,WNW,285,6.0,15.0,63,0.00,CLR,CLR,0.00,WeatherDisplay:10.37,2013-05-13 08:20:00,
2013-05-13 11:30:00,73.9,59.6,27.75,NW,306,6.0,13.0,61,0.00,CLR,CLR,0.00,WeatherDisplay:10.37,2013-05-13 08:30:00,
2013-05-13 11:40:00,73.8,60.4,27.76,NW,326,3.0,15.0,63,0.00,CLR,CLR,0.00,WeatherDisplay:10.37,2013-05-13 08:40:00,
2013-05-13 11:50:00,73.1,59.3,27.75,WNW,288,3.0,13.0,62,0.00,CLR,CLR,0.00,WeatherDisplay:10.37,2013-05-13 08:50:00,
2013-05-13 12:00:00,76.1,61.2,27.75,NNW,339,2.0,9.0,60,0.00,CLR,CLR,0.00,WeatherDisplay:10.37,2013-05-13 09:00:00,
2013-05-13 12:10:00,77.0,62.0,27.74,NW,315,3.0,12.0,60,0.00,CLR,CLR,0.00,WeatherDisplay:10.37,2013-05-13 09:10:00,
2013-05-13 12:20:00,76.7,61.3,27.75,NW,315,7.0,13.0,59,0.00,CLR,CLR,0.00,WeatherDisplay:10.37,2013-05-13 09:20:00,
2013-05-13 12:30:00,76.3,59.9,27.74,WSW,249,6.0,13.0,57,0.00,CLR,CLR,0.00,WeatherDisplay:10.37,2013-05-13 09:30:00,
2013-05-13 12:40:00,74.5,59.7,27.75,West,267,6.0,14.0,60,0.00,CLR,CLR,0.00,WeatherDisplay:10.37,2013-05-13 09:40:00,
2013-05-13 12:50:00,75.6,60.8,27.74,West,265,5.0,13.0,60,0.00,CLR,CLR,0.00,WeatherDisplay:10.37,2013-05-13 09:50:00,
2013-05-13 13:00:00,75.6,60.7,27.74,SW,221,5.0,11.0,60,0.00,CLR,CLR,0.00,WeatherDisplay:10.37,2013-05-13 10:00:00,
2013-05-13 13:10:00,76.4,61.5,27.74,NW,320,5.0,13.0,60,0.00,CLR,CLR,0.00,WeatherDisplay:10.37,2013-05-13 10:10:00,
2013-05-13 13:20:00,75.6,60.2,27.74,West,263,6.0,14.0,59,0.00,CLR,CLR,0.00,WeatherDisplay:10.37,2013-05-13 10:20:00,
2013-05-13 13:30:00,74.2,59.5,27.74,NW,314,3.0,13.0,60,0.00,CLR,CLR,0.00,WeatherDisplay:10.37,2013-05-13 10:30:00,
2013-05-13 13:40:00,75.4,60.1,27.74,WSW,258,5.0,12.0,59,0.00,CLR,CLR,0.00,WeatherDisplay:10.37,2013-05-13 10:40:00,
2013-05-13 13:50:00,76.6,60.2,27.73,SW,233,6.0,12.0,57,0.00,CLR,CLR,0.00,WeatherDisplay:10.37,2013-05-13 10:50:00,
2013-05-13 14:00:00,75.9,58.6,27.73,WSW,238,3.0,12.0,55,0.00,CLR,CLR,0.00,WeatherDisplay:10.37,2013-05-13 11:00:00,
2013-05-13 14:10:00,74.3,57.6,27.73,West,265,3.0,9.0,56,0.00,CLR,CLR,0.00,WeatherDisplay:10.37,2013-05-13 11:10:00,
2013-05-13 14:20:00,74.2,58.4,27.72,West,270,3.0,8.0,58,0.00,CLR,CLR,0.00,WeatherDisplay:10.37,2013-05-13 11:20:00,
2013-05-13 14:30:00,75.2,57.9,27.72,West,269,2.0,8.0,55,0.00,CLR,CLR,0.00,WeatherDisplay:10.37,2013-05-13 11:30:00,
2013-05-13 14:40:00,75.4,60.5,27.73,NNW,336,0.0,7.0,60,0.00,CLR,CLR,0.00,WeatherDisplay:10.37,2013-05-13 11:40:00,
2013-05-13 14:50:00,75.3,60.0,27.73,NW,315,2.0,6.0,59,0.00,CLR,CLR,0.00,WeatherDisplay:10.37,2013-05-13 11:50:00,
2013-05-13 15:00:00,78.6,61.1,27.72,NNW,327,3.0,8.0,55,0.00,CLR,CLR,0.00,WeatherDisplay:10.37,2013-05-13 12:00:00,
2013-05-13 15:10:00,77.1,59.2,27.72,East,98,2.0,9.0,54,0.00,CLR,CLR,0.00,WeatherDisplay:10.37,2013-05-13 12:10:00,
2013-05-13 15:20:00,75.9,58.0,27.72,SSE,156,2.0,8.0,54,0.00,CLR,CLR,0.00,WeatherDisplay:10.37,2013-05-13 12:20:00,
2013-05-13 15:30:00,74.5,58.2,27.72,SSE,158,3.0,8.0,57,0.00,CLR,CLR,0.00,WeatherDisplay:10.37,2013-05-13 12:30:00,
2013-05-13 15:40:00,74.8,55.5,27.71,SSE,165,1.0,6.0,51,0.00,CLR,CLR,0.00,WeatherDisplay:10.37,2013-05-13 12:40:00,
2013-05-13 15:50:00,76.3,55.7,27.71,South,179,3.0,8.0,49,0.00,CLR,CLR,0.00,WeatherDisplay:10.37,2013-05-13 12:50:00,
2013-05-13 16:00:00,76.2,55.7,27.72,SSE,158,3.0,7.0,49,0.00,CLR,CLR,0.00,WeatherDisplay:10.37,2013-05-13 13:00:00,
2013-05-13 16:10:00,75.4,54.9,27.71,SE,135,1.0,7.0,49,0.00,CLR,CLR,0.00,WeatherDisplay:10.37,2013-05-13 13:10:00,
2013-05-13 16:20:00,75.6,55.6,27.71,SSE,150,2.0,6.0,50,0.00,CLR,CLR,0.00,WeatherDisplay:10.37,2013-05-13 13:20:00,
2013-05-13 16:30:00,75.5,56.1,27.70,SSE,157,1.0,7.0,51,0.00,CLR,CLR,0.00,WeatherDisplay:10.37,2013-05-13 13:30:00,
2013-05-13 16:40:00,76.3,56.3,27.70,SE,145,2.0,6.0,50,0.00,CLR,CLR,0.00,WeatherDisplay:10.37,2013-05-13 13:40:00,
2013-05-13 16:50:00,74.0,55.3,27.70,SSE,150,3.0,8.0,52,0.00,CLR,CLR,0.00,WeatherDisplay:10.37,2013-05-13 13:50:00,
2013-05-13 17:00:00,72.7,54.6,27.71,SSE,154,3.0,10.0,53,0.00,CLR,CLR,0.00,WeatherDisplay:10.37,2013-05-13 14:00:00,
2013-05-13 17:10:00,71.8,54.7,27.71,SSE,165,5.0,12.0,55,0.00,CLR,CLR,0.00,WeatherDisplay:10.37,2013-05-13 14:10:00,
2013-05-13 17:20:00,71.4,55.4,27.71,South,171,5.0,9.0,57,0.00,CLR,CLR,0.00,WeatherDisplay:10.37,2013-05-13 14:20:00,
2013-05-13 17:30:00,72.0,55.4,27.71,SSE,158,2.0,9.0,56,0.00,CLR,CLR,0.00,WeatherDisplay:10.37,2013-05-13 14:30:00,
2013-05-13 17:40:00,72.7,56.1,27.71,SSW,194,5.0,8.0,56,0.00,CLR,CLR,0.00,WeatherDisplay:10.37,2013-05-13 14:40:00,
2013-05-13 17:50:00,72.1,56.1,27.71,South,180,1.0,8.0,57,0.00,CLR,CLR,0.00,WeatherDisplay:10.37,2013-05-13 14:50:00,
2013-05-13 18:00:00,72.9,57.7,27.72,South,180,2.0,6.0,59,0.00,CLR,CLR,0.00,WeatherDisplay:10.37,2013-05-13 15:00:00,
2013-05-13 18:10:00,73.9,58.2,27.71,SSW,195,2.0,6.0,58,0.00,CLR,CLR,0.00,WeatherDisplay:10.37,2013-05-13 15:10:00,
2013-05-13 18:20:00,72.9,58.6,27.71,SSE,150,3.0,11.0,61,0.00,CLR,CLR,0.00,WeatherDisplay:10.37,2013-05-13 15:20:00,
2013-05-13 18:30:00,74.8,59.1,27.71,SSE,165,3.0,8.0,58,0.00,CLR,CLR,0.00,WeatherDisplay:10.37,2013-05-13 15:30:00,
2013-05-13 18:40:00,74.1,58.4,27.70,SSE,168,2.0,8.0,58,0.00,CLR,CLR,0.00,WeatherDisplay:10.37,2013-05-13 15:40:00,
2013-05-13 18:50:00,72.2,58.0,27.71,SE,133,3.0,8.0,61,0.00,CLR,CLR,0.00,WeatherDisplay:10.37,2013-05-13 15:50:00,
2013-05-13 19:00:00,71.0,57.4,27.71,SSE,166,3.0,8.0,62,0.00,CLR,CLR,0.00,WeatherDisplay:10.37,2013-05-13 16:00:00,
2013-05-13 19:10:00,70.4,55.8,27.71,South,169,5.0,9.0,60,0.00,CLR,CLR,0.00,WeatherDisplay:10.37,2013-05-13 16:10:00,
2013-05-13 19:20:00,70.2,55.6,27.72,SSE,148,2.0,8.0,60,0.00,CLR,CLR,0.00,WeatherDisplay:10.37,2013-05-13 16:20:00,
2013-05-13 19:30:00,69.8,55.3,27.72,SSE,150,5.0,8.0,60,0.00,CLR,CLR,0.00,WeatherDisplay:10.37,2013-05-13 16:30:00,
2013-05-13 19:40:00,69.7,56.6,27.72,SSE,153,6.0,11.0,63,0.00,CLR,CLR,0.00,WeatherDisplay:10.37,2013-05-13 16:40:00,
2013-05-13 19:50:00,68.9,57.1,27.72,SSW,205,6.0,10.0,66,0.00,CLR,CLR,0.00,WeatherDisplay:10.37,2013-05-13 16:50:00,
2013-05-13 20:00:00,68.3,59.3,27.73,South,171,7.0,13.0,73,0.00,CLR,CLR,0.00,WeatherDisplay:10.37,2013-05-13 17:00:00,
2013-05-13 20:10:00,67.5,57.7,27.73,SSW,196,1.0,15.0,71,0.00,CLR,CLR,0.00,WeatherDisplay:10.37,2013-05-13 17:10:00,
2013-05-13 20:20:00,67.5,57.3,27.73,SW,225,2.0,5.0,70,0.00,CLR,CLR,0.00,WeatherDisplay:10.37,2013-05-13 17:20:00,
2013-05-13 20:30:00,67.6,57.9,27.73,SW,225,1.0,5.0,71,0.00,CLR,CLR,0.00,WeatherDisplay:10.37,2013-05-13 17:30:00,
2013-05-13 20:40:00,67.5,60.0,27.73,SW,220,5.0,12.0,77,0.00,CLR,CLR,0.00,WeatherDisplay:10.37,2013-05-13 17:40:00,
2013-05-13 20:50:00,66.9,59.8,27.73,WSW,237,5.0,10.0,78,0.00,CLR,CLR,0.00,WeatherDisplay:10.37,2013-05-13 17:50:00,
2013-05-13 21:00:00,66.6,59.8,27.74,SW,225,3.0,8.0,79,0.00,CLR,CLR,0.00,WeatherDisplay:10.37,2013-05-13 18:00:00,
2013-05-13 21:10:00,66.6,60.5,27.74,SW,227,3.0,10.0,81,0.00,CLR,CLR,0.00,WeatherDisplay:10.37,2013-05-13 18:10:00,
2013-05-13 21:20:00,66.0,60.3,27.74,SSW,207,3.0,13.0,82,0.00,CLR,CLR,0.00,WeatherDisplay:10.37,2013-05-13 18:20:00,
2013-05-13 21:30:00,65.5,60.2,27.74,South,188,6.0,15.0,83,0.00,CLR,CLR,0.00,WeatherDisplay:10.37,2013-05-13 18:30:00,
2013-05-13 21:40:00,65.3,60.3,27.74,SSW,202,3.0,13.0,84,0.00,CLR,CLR,0.00,WeatherDisplay:10.37,2013-05-13 18:40:00,
2013-05-13 21:50:00,65.3,60.3,27.74,SW,224,3.0,11.0,84,0.00,CLR,CLR,0.00,WeatherDisplay:10.37,2013-05-13 18:50:00,
2013-05-13 22:00:00,65.7,60.7,27.74,SW,233,2.0,9.0,84,0.00,CLR,CLR,0.00,WeatherDisplay:10.37,2013-05-13 19:00:00,
2013-05-13 22:10:00,65.8,60.5,27.74,West,275,3.0,9.0,83,0.00,CLR,CLR,0.00,WeatherDisplay:10.37,2013-05-13 19:10:00,
2013-05-13 22:20:00,66.4,60.7,27.74,WNW,282,2.0,8.0,82,0.00,CLR,CLR,0.00,WeatherDisplay:10.37,2013-05-13 19:20:00,
2013-05-13 22:30:00,66.6,60.5,27.75,NW,315,2.0,6.0,81,0.00,CLR,CLR,0.00,WeatherDisplay:10.37,2013-05-13 19:30:00,
2013-05-13 22:40:00,66.4,59.7,27.75,West,279,2.0,9.0,79,0.00,CLR,CLR,0.00,WeatherDisplay:10.37,2013-05-13 19:40:00,
2013-05-13 22:50:00,66.1,59.1,27.75,NW,312,2.0,6.0,78,0.00,CLR,CLR,0.00,WeatherDisplay:10.37,2013-05-13 19:50:00,
2013-05-13 23:00:00,65.8,58.4,27.76,NNW,348,2.0,6.0,77,0.00,CLR,CLR,0.00,WeatherDisplay:10.37,2013-05-13 20:00:00,
2013-05-13 23:10:00,65.7,57.9,27.75,North,8,0.0,5.0,76,0.00,CLR,CLR,0.00,WeatherDisplay:10.37,2013-05-13 20:10:00,
2013-05-13 23:20:00,65.7,57.5,27.76,North,6,0.0,5.0,75,0.00,CLR,CLR,0.00,WeatherDisplay:10.37,2013-05-13 20:20:00,
2013-05-13 23:30:00,66.0,57.1,27.75,NW,326,2.0,11.0,73,0.00,CLR,CLR,0.00,WeatherDisplay:10.37,2013-05-13 20:30:00,
2013-05-13 23:40:00,65.8,55.7,27.75,NW,308,2.0,8.0,70,0.00,CLR,CLR,0.00,WeatherDisplay:10.37,2013-05-13 20:40:00,
2013-05-13 23:50:00,65.8,55.4,27.76,West,273,2.0,7.0,69,0.00,CLR,CLR,0.00,WeatherDisplay:10.37,2013-05-13 20:50:00,